Circle Line Brooklyn — WDE8160 — position and weather

sailwx.info

Track history (hours):
 
Tides and Currents Weather Stations Pressure Air Temp Water Temp Dewpoint Dewpoint Depression Visibility Wind Speed Wind Dir Waves Ship Positions

Circle Line Brooklyn

Owner: Circle Line Sight Seeing Yachts Inc., New York, NY. More information available from US FCC via Universal Licensing System and Coast Guard Vessel Documentation Center.

Last reported at 2014-Oct-31 18:33 UTC. Time now 2014-Oct-31 19:30 UTC.
Position N 40°46' W 074°00'.

; draft 2.4 m.

MMSI: 367402250.

Date/timePositionNaut miles runAvg speedWind from/ knotsBaromVisibWave heightAir tempDewpointWater temp
2014-Oct-31 18:33N 40°46' W 074°00'0 0.1
2014-Oct-31 17:32N 40°46' W 074°00'0 0.0
2014-Oct-31 16:32N 40°46' W 074°00'0 0.0
2014-Oct-31 15:29N 40°46' W 074°00'1 1.4
2014-Oct-31 14:32N 40°47' W 073°60'1 1.4
2014-Oct-31 13:32N 40°46' W 074°00'0 0.0
2014-Oct-30 18:28N 40°46' W 074°00'0 0.0
2014-Oct-30 17:28N 40°46' W 074°00'4 4.2
2014-Oct-30 16:32N 40°49' W 073°58'4 3.3
2014-Oct-30 15:23N 40°46' W 073°57'3 3.6
2014-Oct-30 14:33N 40°44' W 074°01'0 0.0
2014-Oct-28 21:33N 40°45' W 074°01'3 3.4
2014-Oct-28 20:33N 40°41' W 074°02'5 4.6
2014-Oct-28 19:33N 40°46' W 074°00'4 1.8
2014-Oct-28 17:33N 40°42' W 073°59'4 3.5
2014-Oct-28 16:33N 40°46' W 074°00'0 0.0
2014-Oct-28 15:33N 40°46' W 074°00'4 3.7
2014-Oct-28 14:33N 40°42' W 074°01'4 3.7
2014-Oct-28 13:33N 40°46' W 074°00'0 0.0
2014-Oct-28 12:33N 40°46' W 074°00'3 0.2
2014-Oct-27 21:33N 40°43' W 074°01'2 1.7
2014-Oct-27 20:33N 40°41' W 074°02'5 4.6
2014-Oct-27 19:33N 40°46' W 074°00'3 2.7
2014-Oct-27 18:33N 40°48' W 073°59'3 2.6
2014-Oct-27 17:24N 40°45' W 073°57'4 4.4
2014-Oct-27 16:32N 40°43' W 074°01'3 2.6
2014-Oct-27 15:29N 40°46' W 074°00'5 5.1
2014-Oct-27 14:33N 40°41' W 074°02'5 4.6
2014-Oct-27 13:31N 40°46' W 074°00'2 0.1
2014-Oct-26 20:33N 40°44' W 073°58'2 2.4
2014-Oct-26 19:33N 40°46' W 074°00'1 0.6
2014-Oct-26 18:33N 40°45' W 074°01'1 0.6
2014-Oct-26 17:33N 40°46' W 074°00'1 1.2
2014-Oct-26 16:33N 40°47' W 073°60'3 3.4
2014-Oct-26 15:33N 40°44' W 073°58'4 4.0
2014-Oct-26 14:33N 40°41' W 074°03'5 4.0
2014-Oct-26 13:21N 40°46' W 074°00'0 0.0
2014-Oct-26 12:33N 40°46' W 074°00'0 0.0
2014-Oct-26 00:12N 40°46' W 074°00'2 3.7
2014-Oct-25 23:33N 40°44' W 074°01'2 2.3
2014-Oct-25 22:33N 40°42' W 073°59'4 3.4
2014-Oct-25 21:31N 40°46' W 074°00'0 0.0
2014-Oct-25 20:31N 40°46' W 074°00'3 3.2
2014-Oct-25 19:33N 40°43' W 073°58'3 2.9
2014-Oct-25 18:32N 40°46' W 074°00'0 0.0
2014-Oct-25 17:32N 40°46' W 074°00'2 2.2
2014-Oct-25 16:32N 40°45' W 073°58'2 2.3
2014-Oct-25 15:33N 40°46' W 074°00'0 0.1
2014-Oct-25 14:31N 40°46' W 074°00'0 0.0
2014-Oct-24 22:08N 40°46' W 074°00'7 7.8
2014-Oct-24 21:17N 40°51' W 073°55'7 9.6
2014-Oct-24 20:33N 40°45' W 073°58'2 2.1
2014-Oct-24 19:33N 40°46' W 074°00'0 0.1
2014-Oct-24 18:33N 40°46' W 074°00'0 0.1
2014-Oct-24 17:34N 40°46' W 074°00'1 1.1
2014-Oct-24 16:29N 40°47' W 073°60'2 2.0
2014-Oct-24 15:19N 40°46' W 073°57'5 7.1
2014-Oct-24 14:33N 40°42' W 074°02'4 4.3
2014-Oct-24 13:32N 40°46' W 074°00'2 0.1
2014-Oct-23 23:33N 40°44' W 074°01'2 2.4
2014-Oct-23 22:34N 40°42' W 073°59'4 3.2
2014-Oct-23 21:29N 40°46' W 074°00'0 0.0
2014-Oct-23 20:32N 40°46' W 074°00'2 2.2
2014-Oct-23 19:33N 40°45' W 073°58'2 2.2
2014-Oct-23 18:33N 40°46' W 074°00'0 0.0
2014-Oct-23 17:33N 40°46' W 074°00'2 2.2
2014-Oct-23 16:33N 40°44' W 073°58'2 2.3
2014-Oct-23 15:34N 40°46' W 074°00'0 0.0
2014-Oct-23 14:33N 40°46' W 074°00'0 0.0
2014-Oct-21 21:16N 40°46' W 074°00'4 5.8
2014-Oct-21 20:34N 40°42' W 074°02'4 4.0
2014-Oct-21 19:32N 40°46' W 074°00'  
Track history (hours):
 
Tides and Currents Weather Stations Pressure Air Temp Water Temp Dewpoint Dewpoint Depression Visibility Wind Speed Wind Dir Waves Ship Positions

Circle Line Brooklyn

Owner: Circle Line Sight Seeing Yachts Inc., New York, NY. More information available from US FCC via Universal Licensing System and Coast Guard Vessel Documentation Center.

Last reported at 2014-Oct-31 18:33 UTC. Time now 2014-Oct-31 19:30 UTC.
Position N 40°46' W 074°00'.

; draft 2.4 m.

MMSI: 367402250.

Date/timePositionNaut miles runAvg speedWind from/ knotsBaromVisibWave heightAir tempDewpointWater temp
2014-Oct-31 18:33N 40°46' W 074°00'0 0.1
2014-Oct-31 17:32N 40°46' W 074°00'0 0.0
2014-Oct-31 16:32N 40°46' W 074°00'0 0.0
2014-Oct-31 15:29N 40°46' W 074°00'1 1.4
2014-Oct-31 14:32N 40°47' W 073°60'1 1.4
2014-Oct-31 13:32N 40°46' W 074°00'0 0.0
2014-Oct-30 18:28N 40°46' W 074°00'0 0.0
2014-Oct-30 17:28N 40°46' W 074°00'4 4.2
2014-Oct-30 16:32N 40°49' W 073°58'4 3.3
2014-Oct-30 15:23N 40°46' W 073°57'3 3.6
2014-Oct-30 14:33N 40°44' W 074°01'0 0.0
2014-Oct-28 21:33N 40°45' W 074°01'3 3.4
2014-Oct-28 20:33N 40°41' W 074°02'5 4.6
2014-Oct-28 19:33N 40°46' W 074°00'4 1.8
2014-Oct-28 17:33N 40°42' W 073°59'4 3.5
2014-Oct-28 16:33N 40°46' W 074°00'0 0.0
2014-Oct-28 15:33N 40°46' W 074°00'4 3.7
2014-Oct-28 14:33N 40°42' W 074°01'4 3.7
2014-Oct-28 13:33N 40°46' W 074°00'0 0.0
2014-Oct-28 12:33N 40°46' W 074°00'3 0.2
2014-Oct-27 21:33N 40°43' W 074°01'2 1.7
2014-Oct-27 20:33N 40°41' W 074°02'5 4.6
2014-Oct-27 19:33N 40°46' W 074°00'3 2.7
2014-Oct-27 18:33N 40°48' W 073°59'3 2.6
2014-Oct-27 17:24N 40°45' W 073°57'4 4.4
2014-Oct-27 16:32N 40°43' W 074°01'3 2.6
2014-Oct-27 15:29N 40°46' W 074°00'5 5.1
2014-Oct-27 14:33N 40°41' W 074°02'5 4.6
2014-Oct-27 13:31N 40°46' W 074°00'2 0.1
2014-Oct-26 20:33N 40°44' W 073°58'2 2.4
2014-Oct-26 19:33N 40°46' W 074°00'1 0.6
2014-Oct-26 18:33N 40°45' W 074°01'1 0.6
2014-Oct-26 17:33N 40°46' W 074°00'1 1.2
2014-Oct-26 16:33N 40°47' W 073°60'3 3.4
2014-Oct-26 15:33N 40°44' W 073°58'4 4.0
2014-Oct-26 14:33N 40°41' W 074°03'5 4.0
2014-Oct-26 13:21N 40°46' W 074°00'0 0.0
2014-Oct-26 12:33N 40°46' W 074°00'0 0.0
2014-Oct-26 00:12N 40°46' W 074°00'2 3.7
2014-Oct-25 23:33N 40°44' W 074°01'2 2.3
2014-Oct-25 22:33N 40°42' W 073°59'4 3.4
2014-Oct-25 21:31N 40°46' W 074°00'0 0.0
2014-Oct-25 20:31N 40°46' W 074°00'3 3.2
2014-Oct-25 19:33N 40°43' W 073°58'3 2.9
2014-Oct-25 18:32N 40°46' W 074°00'0 0.0
2014-Oct-25 17:32N 40°46' W 074°00'2 2.2
2014-Oct-25 16:32N 40°45' W 073°58'2 2.3
2014-Oct-25 15:33N 40°46' W 074°00'0 0.1
2014-Oct-25 14:31N 40°46' W 074°00'0 0.0
2014-Oct-24 22:08N 40°46' W 074°00'7 7.8
2014-Oct-24 21:17N 40°51' W 073°55'7 9.6
2014-Oct-24 20:33N 40°45' W 073°58'2 2.1
2014-Oct-24 19:33N 40°46' W 074°00'0 0.1
2014-Oct-24 18:33N 40°46' W 074°00'0 0.1
2014-Oct-24 17:34N 40°46' W 074°00'1 1.1
2014-Oct-24 16:29N 40°47' W 073°60'2 2.0
2014-Oct-24 15:19N 40°46' W 073°57'5 7.1
2014-Oct-24 14:33N 40°42' W 074°02'4 4.3
2014-Oct-24 13:32N 40°46' W 074°00'2 0.1
2014-Oct-23 23:33N 40°44' W 074°01'2 2.4
2014-Oct-23 22:34N 40°42' W 073°59'4 3.2
2014-Oct-23 21:29N 40°46' W 074°00'0 0.0
2014-Oct-23 20:32N 40°46' W 074°00'2 2.2
2014-Oct-23 19:33N 40°45' W 073°58'2 2.2
2014-Oct-23 18:33N 40°46' W 074°00'0 0.0
2014-Oct-23 17:33N 40°46' W 074°00'2 2.2
2014-Oct-23 16:33N 40°44' W 073°58'2 2.3
2014-Oct-23 15:34N 40°46' W 074°00'0 0.0
2014-Oct-23 14:33N 40°46' W 074°00'0 0.0
2014-Oct-21 21:16N 40°46' W 074°00'4 5.8
2014-Oct-21 20:34N 40°42' W 074°02'4 4.0
2014-Oct-21 19:32N 40°46' W 074°00'  

Dump ship's entire track history